sensor_id;sensor_type;location;lat;lon;timestamp;P1;durP1;ratioP1;P2;durP2;ratioP2
64225;SDS011;50545;56.064;26.178;2022-09-03T00:02:43;2.70;;;0.90;;
64225;SDS011;50545;56.064;26.178;2022-09-03T00:05:16;1.52;;;1.00;;
64225;SDS011;50545;56.064;26.178;2022-09-03T00:10:49;1.05;;;0.80;;
64225;SDS011;50545;56.064;26.178;2022-09-03T00:13:28;5.15;;;1.10;;
64225;SDS011;50545;56.064;26.178;2022-09-03T00:16:02;4.65;;;1.00;;
64225;SDS011;50545;56.064;26.178;2022-09-03T00:18:37;1.27;;;0.70;;
64225;SDS011;50545;56.064;26.178;2022-09-03T00:21:11;1.70;;;1.10;;
64225;SDS011;50545;56.064;26.178;2022-09-03T00:23:43;1.20;;;0.90;;
64225;SDS011;50545;56.064;26.178;2022-09-03T00:31:29;1.50;;;0.77;;
64225;SDS011;50545;56.064;26.178;2022-09-03T00:34:02;2.15;;;0.98;;
64225;SDS011;50545;56.064;26.178;2022-09-03T00:36:43;0.93;;;0.80;;
64225;SDS011;50545;56.064;26.178;2022-09-03T00:39:12;3.95;;;0.80;;
64225;SDS011;50545;56.064;26.178;2022-09-03T00:52:59;1.27;;;0.90;;
64225;SDS011;50545;56.064;26.178;2022-09-03T00:55:56;3.33;;;1.00;;
64225;SDS011;50545;56.064;26.178;2022-09-03T01:01:39;1.75;;;1.05;;
64225;SDS011;50545;56.064;26.178;2022-09-03T01:34:08;1.23;;;0.90;;
64225;SDS011;50545;56.064;26.178;2022-09-03T01:39:38;1.23;;;0.82;;
64225;SDS011;50545;56.064;26.178;2022-09-03T01:50:47;2.33;;;0.88;;
64225;SDS011;50545;56.064;26.178;2022-09-03T01:54:05;2.00;;;0.75;;
64225;SDS011;50545;56.064;26.178;2022-09-03T01:59:22;0.80;;;0.80;;
64225;SDS011;50545;56.064;26.178;2022-09-03T02:02:09;1.80;;;1.00;;
64225;SDS011;50545;56.064;26.178;2022-09-03T02:05:04;0.93;;;0.80;;
64225;SDS011;50545;56.064;26.178;2022-09-03T02:10:18;0.90;;;0.90;;
64225;SDS011;50545;56.064;26.178;2022-09-03T02:12:54;1.33;;;0.85;;
64225;SDS011;50545;56.064;26.178;2022-09-03T02:15:30;1.30;;;0.95;;
64225;SDS011;50545;56.064;26.178;2022-09-03T02:18:00;0.98;;;0.90;;
64225;SDS011;50545;56.064;26.178;2022-09-03T02:20:30;2.03;;;1.00;;
64225;SDS011;50545;56.064;26.178;2022-09-03T02:22:58;1.45;;;1.00;;
64225;SDS011;50545;56.064;26.178;2022-09-03T02:25:36;0.95;;;0.93;;
64225;SDS011;50545;56.064;26.178;2022-09-03T02:28:06;0.82;;;0.80;;
64225;SDS011;50545;56.064;26.178;2022-09-03T02:30:43;1.10;;;0.80;;
64225;SDS011;50545;56.064;26.178;2022-09-03T02:33:11;0.90;;;0.90;;
64225;SDS011;50545;56.064;26.178;2022-09-03T02:35:38;0.80;;;0.80;;
64225;SDS011;50545;56.064;26.178;2022-09-03T02:38:15;2.42;;;0.98;;
64225;SDS011;50545;56.064;26.178;2022-09-03T02:40:45;1.00;;;1.00;;
64225;SDS011;50545;56.064;26.178;2022-09-03T02:43:35;0.85;;;0.65;;
64225;SDS011;50545;56.064;26.178;2022-09-03T02:46:04;1.15;;;0.77;;
64225;SDS011;50545;56.064;26.178;2022-09-03T02:48:35;0.63;;;0.63;;
64225;SDS011;50545;56.064;26.178;2022-09-03T02:51:03;0.80;;;0.80;;
64225;SDS011;50545;56.064;26.178;2022-09-03T02:53:39;2.90;;;1.10;;
64225;SDS011;50545;56.064;26.178;2022-09-03T02:56:07;0.85;;;0.85;;
64225;SDS011;50545;56.064;26.178;2022-09-03T02:58:34;0.68;;;0.68;;
64225;SDS011;50545;56.064;26.178;2022-09-03T03:01:02;0.90;;;0.85;;
64225;SDS011;50545;56.064;26.178;2022-09-03T03:03:29;0.88;;;0.82;;
64225;SDS011;50545;56.064;26.178;2022-09-03T03:05:57;0.88;;;0.80;;
64225;SDS011;50545;56.064;26.178;2022-09-03T03:08:28;2.25;;;0.70;;
64225;SDS011;50545;56.064;26.178;2022-09-03T03:10:56;0.77;;;0.68;;
64225;SDS011;50545;56.064;26.178;2022-09-03T03:13:28;1.52;;;0.77;;
64225;SDS011;50545;56.064;26.178;2022-09-03T03:15:57;2.63;;;1.08;;
64225;SDS011;50545;56.064;26.178;2022-09-03T03:18:29;1.08;;;0.98;;
64225;SDS011;50545;56.064;26.178;2022-09-03T03:20:57;1.75;;;0.70;;
64225;SDS011;50545;56.064;26.178;2022-09-03T03:23:30;0.88;;;0.85;;
64225;SDS011;50545;56.064;26.178;2022-09-03T03:26:05;2.33;;;0.82;;
64225;SDS011;50545;56.064;26.178;2022-09-03T03:28:34;0.80;;;0.80;;
64225;SDS011;50545;56.064;26.178;2022-09-03T03:31:09;0.75;;;0.75;;
64225;SDS011;50545;56.064;26.178;2022-09-03T03:33:41;0.77;;;0.77;;
64225;SDS011;50545;56.064;26.178;2022-09-03T03:36:11;0.77;;;0.77;;
64225;SDS011;50545;56.064;26.178;2022-09-03T03:41:08;0.70;;;0.70;;
64225;SDS011;50545;56.064;26.178;2022-09-03T03:43:37;0.90;;;0.70;;
64225;SDS011;50545;56.064;26.178;2022-09-03T03:46:05;1.08;;;0.93;;
64225;SDS011;50545;56.064;26.178;2022-09-03T03:48:32;0.85;;;0.85;;
64225;SDS011;50545;56.064;26.178;2022-09-03T03:51:00;1.08;;;0.90;;
64225;SDS011;50545;56.064;26.178;2022-09-03T03:53:33;1.25;;;0.80;;
64225;SDS011;50545;56.064;26.178;2022-09-03T03:56:02;1.10;;;0.80;;
64225;SDS011;50545;56.064;26.178;2022-09-03T03:58:31;1.00;;;0.90;;
64225;SDS011;50545;56.064;26.178;2022-09-03T04:01:12;1.10;;;1.05;;
64225;SDS011;50545;56.064;26.178;2022-09-03T04:03:44;1.05;;;0.82;;
64225;SDS011;50545;56.064;26.178;2022-09-03T04:06:13;0.70;;;0.70;;
64225;SDS011;50545;56.064;26.178;2022-09-03T04:08:43;1.75;;;0.80;;
64225;SDS011;50545;56.064;26.178;2022-09-03T04:11:16;1.13;;;0.93;;
64225;SDS011;50545;56.064;26.178;2022-09-03T04:13:46;0.80;;;0.80;;
64225;SDS011;50545;56.064;26.178;2022-09-03T04:16:17;0.50;;;0.50;;
64225;SDS011;50545;56.064;26.178;2022-09-03T04:18:45;1.00;;;0.82;;
64225;SDS011;50545;56.064;26.178;2022-09-03T04:21:16;0.95;;;0.65;;
64225;SDS011;50545;56.064;26.178;2022-09-03T04:23:46;0.90;;;0.70;;
64225;SDS011;50545;56.064;26.178;2022-09-03T04:26:16;0.93;;;0.93;;
64225;SDS011;50545;56.064;26.178;2022-09-03T04:31:13;1.55;;;0.73;;
64225;SDS011;50545;56.064;26.178;2022-09-03T04:33:42;0.75;;;0.75;;
64225;SDS011;50545;56.064;26.178;2022-09-03T04:36:17;0.88;;;0.88;;
64225;SDS011;50545;56.064;26.178;2022-09-03T04:38:47;0.70;;;0.70;;
64225;SDS011;50545;56.064;26.178;2022-09-03T04:41:17;2.28;;;1.05;;
64225;SDS011;50545;56.064;26.178;2022-09-03T04:43:46;2.50;;;0.82;;
64225;SDS011;50545;56.064;26.178;2022-09-03T04:46:17;1.15;;;0.82;;
64225;SDS011;50545;56.064;26.178;2022-09-03T04:48:47;0.90;;;0.90;;
64225;SDS011;50545;56.064;26.178;2022-09-03T04:51:22;1.27;;;0.90;;
64225;SDS011;50545;56.064;26.178;2022-09-03T04:53:54;0.80;;;0.80;;
64225;SDS011;50545;56.064;26.178;2022-09-03T04:56:23;2.47;;;1.40;;
64225;SDS011;50545;56.064;26.178;2022-09-03T04:58:53;2.30;;;1.40;;
64225;SDS011;50545;56.064;26.178;2022-09-03T05:01:24;4.95;;;2.92;;
64225;SDS011;50545;56.064;26.178;2022-09-03T05:03:53;5.18;;;3.08;;
64225;SDS011;50545;56.064;26.178;2022-09-03T05:06:21;3.55;;;2.45;;
64225;SDS011;50545;56.064;26.178;2022-09-03T05:08:51;4.10;;;2.30;;
64225;SDS011;50545;56.064;26.178;2022-09-03T05:11:19;2.78;;;1.92;;
64225;SDS011;50545;56.064;26.178;2022-09-03T05:13:51;3.28;;;1.85;;
64225;SDS011;50545;56.064;26.178;2022-09-03T05:16:20;2.63;;;1.92;;
64225;SDS011;50545;56.064;26.178;2022-09-03T05:18:52;1.88;;;1.60;;
64225;SDS011;50545;56.064;26.178;2022-09-03T05:21:21;1.45;;;1.30;;
64225;SDS011;50545;56.064;26.178;2022-09-03T05:23:50;1.20;;;1.13;;
64225;SDS011;50545;56.064;26.178;2022-09-03T05:26:22;2.22;;;1.70;;
64225;SDS011;50545;56.064;26.178;2022-09-03T05:28:53;3.42;;;2.10;;
64225;SDS011;50545;56.064;26.178;2022-09-03T05:31:22;4.60;;;2.42;;
64225;SDS011;50545;56.064;26.178;2022-09-03T05:33:53;5.55;;;2.35;;
64225;SDS011;50545;56.064;26.178;2022-09-03T05:36:26;2.45;;;1.80;;
64225;SDS011;50545;56.064;26.178;2022-09-03T05:38:55;4.40;;;1.88;;
64225;SDS011;50545;56.064;26.178;2022-09-03T05:41:24;3.30;;;1.77;;
64225;SDS011;50545;56.064;26.178;2022-09-03T05:43:52;1.50;;;1.40;;
64225;SDS011;50545;56.064;26.178;2022-09-03T05:46:22;2.88;;;1.35;;
64225;SDS011;50545;56.064;26.178;2022-09-03T05:48:58;1.20;;;1.10;;
64225;SDS011;50545;56.064;26.178;2022-09-03T05:51:27;1.30;;;1.20;;
64225;SDS011;50545;56.064;26.178;2022-09-03T05:53:56;3.05;;;1.50;;
64225;SDS011;50545;56.064;26.178;2022-09-03T05:56:24;1.88;;;1.45;;
64225;SDS011;50545;56.064;26.178;2022-09-03T05:58:55;2.87;;;1.90;;
64225;SDS011;50545;56.064;26.178;2022-09-03T06:01:27;2.40;;;1.98;;
64225;SDS011;50545;56.064;26.178;2022-09-03T06:06:25;1.50;;;1.40;;
64225;SDS011;50545;56.064;26.178;2022-09-03T06:08:58;2.83;;;1.60;;
64225;SDS011;50545;56.064;26.178;2022-09-03T06:11:28;2.15;;;1.55;;
64225;SDS011;50545;56.064;26.178;2022-09-03T06:13:57;1.52;;;1.42;;
64225;SDS011;50545;56.064;26.178;2022-09-03T06:16:31;1.67;;;1.30;;
64225;SDS011;50545;56.064;26.178;2022-09-03T06:18:59;2.33;;;1.30;;
64225;SDS011;50545;56.064;26.178;2022-09-03T06:21:27;1.15;;;1.05;;
64225;SDS011;50545;56.064;26.178;2022-09-03T06:23:55;1.52;;;1.40;;
64225;SDS011;50545;56.064;26.178;2022-09-03T06:26:26;1.33;;;1.20;;
64225;SDS011;50545;56.064;26.178;2022-09-03T06:28:55;1.48;;;1.38;;
64225;SDS011;50545;56.064;26.178;2022-09-03T06:31:23;1.88;;;1.60;;
64225;SDS011;50545;56.064;26.178;2022-09-03T06:33:51;1.65;;;1.38;;
64225;SDS011;50545;56.064;26.178;2022-09-03T06:36:21;1.50;;;1.30;;
64225;SDS011;50545;56.064;26.178;2022-09-03T06:38:50;1.10;;;1.00;;
64225;SDS011;50545;56.064;26.178;2022-09-03T06:41:20;1.50;;;1.40;;
64225;SDS011;50545;56.064;26.178;2022-09-03T06:43:58;1.67;;;1.50;;
64225;SDS011;50545;56.064;26.178;2022-09-03T06:46:38;2.47;;;1.20;;
64225;SDS011;50545;56.064;26.178;2022-09-03T06:49:09;1.48;;;1.17;;
64225;SDS011;50545;56.064;26.178;2022-09-03T06:51:37;1.40;;;1.10;;
64225;SDS011;50545;56.064;26.178;2022-09-03T06:54:05;2.17;;;1.23;;
64225;SDS011;50545;56.064;26.178;2022-09-03T06:56:35;1.30;;;1.20;;
64225;SDS011;50545;56.064;26.178;2022-09-03T06:59:10;1.30;;;1.20;;
64225;SDS011;50545;56.064;26.178;2022-09-03T07:01:39;2.10;;;1.45;;
64225;SDS011;50545;56.064;26.178;2022-09-03T07:04:11;1.30;;;1.20;;
64225;SDS011;50545;56.064;26.178;2022-09-03T07:06:39;1.77;;;1.58;;
64225;SDS011;50545;56.064;26.178;2022-09-03T07:09:09;1.50;;;1.40;;
64225;SDS011;50545;56.064;26.178;2022-09-03T07:11:37;2.42;;;1.40;;
64225;SDS011;50545;56.064;26.178;2022-09-03T07:14:14;1.17;;;1.08;;
64225;SDS011;50545;56.064;26.178;2022-09-03T07:16:43;1.23;;;1.10;;
64225;SDS011;50545;56.064;26.178;2022-09-03T07:19:11;1.70;;;1.30;;
64225;SDS011;50545;56.064;26.178;2022-09-03T07:21:39;4.65;;;1.30;;
64225;SDS011;50545;56.064;26.178;2022-09-03T07:24:14;1.33;;;1.20;;
64225;SDS011;50545;56.064;26.178;2022-09-03T07:26:42;0.95;;;0.95;;
64225;SDS011;50545;56.064;26.178;2022-09-03T07:29:14;1.65;;;1.30;;
64225;SDS011;50545;56.064;26.178;2022-09-03T07:31:46;1.35;;;1.13;;
64225;SDS011;50545;56.064;26.178;2022-09-03T07:34:18;1.25;;;1.15;;
64225;SDS011;50545;56.064;26.178;2022-09-03T07:36:47;1.60;;;1.50;;
64225;SDS011;50545;56.064;26.178;2022-09-03T07:39:17;1.80;;;1.20;;
64225;SDS011;50545;56.064;26.178;2022-09-03T07:41:45;2.55;;;1.30;;
64225;SDS011;50545;56.064;26.178;2022-09-03T07:44:13;3.17;;;1.20;;
64225;SDS011;50545;56.064;26.178;2022-09-03T07:46:45;1.25;;;1.13;;
64225;SDS011;50545;56.064;26.178;2022-09-03T07:49:17;2.70;;;1.48;;
64225;SDS011;50545;56.064;26.178;2022-09-03T07:51:47;2.63;;;1.30;;
64225;SDS011;50545;56.064;26.178;2022-09-03T07:54:17;1.35;;;1.00;;
64225;SDS011;50545;56.064;26.178;2022-09-03T07:56:45;1.60;;;1.15;;
64225;SDS011;50545;56.064;26.178;2022-09-03T07:59:13;1.90;;;1.20;;
64225;SDS011;50545;56.064;26.178;2022-09-03T08:01:40;1.52;;;1.02;;
64225;SDS011;50545;56.064;26.178;2022-09-03T08:04:07;1.10;;;1.02;;
64225;SDS011;50545;56.064;26.178;2022-09-03T08:06:35;4.05;;;1.27;;
64225;SDS011;50545;56.064;26.178;2022-09-03T08:09:05;1.10;;;1.00;;
64225;SDS011;50545;56.064;26.178;2022-09-03T08:11:36;1.00;;;1.00;;
64225;SDS011;50545;56.064;26.178;2022-09-03T08:14:06;2.10;;;1.20;;
64225;SDS011;50545;56.064;26.178;2022-09-03T08:16:38;1.33;;;1.08;;
64225;SDS011;50545;56.064;26.178;2022-09-03T08:19:07;2.10;;;1.27;;
64225;SDS011;50545;56.064;26.178;2022-09-03T08:21:36;2.53;;;1.30;;
64225;SDS011;50545;56.064;26.178;2022-09-03T08:24:04;0.98;;;0.95;;
64225;SDS011;50545;56.064;26.178;2022-09-03T08:26:32;0.90;;;0.90;;
64225;SDS011;50545;56.064;26.178;2022-09-03T08:29:01;1.67;;;1.50;;
64225;SDS011;50545;56.064;26.178;2022-09-03T08:31:30;1.40;;;1.10;;
64225;SDS011;50545;56.064;26.178;2022-09-03T08:33:59;2.13;;;1.35;;
64225;SDS011;50545;56.064;26.178;2022-09-03T08:36:33;1.27;;;1.00;;
64225;SDS011;50545;56.064;26.178;2022-09-03T08:39:03;1.02;;;1.02;;
64225;SDS011;50545;56.064;26.178;2022-09-03T08:47:23;1.73;;;1.20;;
64225;SDS011;50545;56.064;26.178;2022-09-03T08:49:59;1.10;;;0.95;;
64225;SDS011;50545;56.064;26.178;2022-09-03T08:52:42;1.30;;;1.00;;
64225;SDS011;50545;56.064;26.178;2022-09-03T08:55:36;1.20;;;1.10;;
64225;SDS011;50545;56.064;26.178;2022-09-03T09:06:34;1.88;;;1.13;;
64225;SDS011;50545;56.064;26.178;2022-09-03T09:09:27;0.90;;;0.90;;
64225;SDS011;50545;56.064;26.178;2022-09-03T09:25:51;1.25;;;1.08;;
64225;SDS011;50545;56.064;26.178;2022-09-03T09:28:22;1.67;;;1.20;;
64225;SDS011;50545;56.064;26.178;2022-09-03T09:30:53;2.50;;;1.05;;
64225;SDS011;50545;56.064;26.178;2022-09-03T09:33:22;1.80;;;1.20;;
64225;SDS011;50545;56.064;26.178;2022-09-03T09:35:50;1.88;;;1.30;;
64225;SDS011;50545;56.064;26.178;2022-09-03T09:38:34;1.15;;;1.05;;
64225;SDS011;50545;56.064;26.178;2022-09-03T09:41:09;1.33;;;1.10;;
64225;SDS011;50545;56.064;26.178;2022-09-03T09:43:38;1.40;;;1.30;;
64225;SDS011;50545;56.064;26.178;2022-09-03T09:56:29;2.05;;;0.93;;
64225;SDS011;50545;56.064;26.178;2022-09-03T09:59:03;1.48;;;1.00;;
64225;SDS011;50545;56.064;26.178;2022-09-03T10:01:32;1.38;;;1.05;;
64225;SDS011;50545;56.064;26.178;2022-09-03T10:04:12;1.25;;;0.90;;
64225;SDS011;50545;56.064;26.178;2022-09-03T10:06:53;2.05;;;1.13;;
64225;SDS011;50545;56.064;26.178;2022-09-03T10:09:26;1.67;;;1.10;;
64225;SDS011;50545;56.064;26.178;2022-09-03T10:12:13;2.05;;;0.73;;
64225;SDS011;50545;56.064;26.178;2022-09-03T10:18:04;1.38;;;0.73;;
64225;SDS011;50545;56.064;26.178;2022-09-03T10:20:59;1.30;;;1.00;;
64225;SDS011;50545;56.064;26.178;2022-09-03T10:23:42;2.20;;;0.80;;
64225;SDS011;50545;56.064;26.178;2022-09-03T10:26:20;0.73;;;0.73;;
64225;SDS011;50545;56.064;26.178;2022-09-03T10:28:55;1.00;;;0.90;;
64225;SDS011;50545;56.064;26.178;2022-09-03T10:39:24;1.27;;;0.85;;
64225;SDS011;50545;56.064;26.178;2022-09-03T10:47:32;0.75;;;0.75;;
64225;SDS011;50545;56.064;26.178;2022-09-03T10:58:33;0.90;;;0.90;;
64225;SDS011;50545;56.064;26.178;2022-09-03T11:09:45;1.00;;;0.90;;
64225;SDS011;50545;56.064;26.178;2022-09-03T11:12:18;1.50;;;1.40;;
64225;SDS011;50545;56.064;26.178;2022-09-03T11:15:04;1.92;;;1.38;;
64225;SDS011;50545;56.064;26.178;2022-09-03T11:17:57;1.23;;;1.13;;
64225;SDS011;50545;56.064;26.178;2022-09-03T11:20:28;0.82;;;0.82;;
64225;SDS011;50545;56.064;26.178;2022-09-03T11:23:02;1.58;;;1.08;;
64225;SDS011;50545;56.064;26.178;2022-09-03T11:25:31;0.60;;;0.60;;
64225;SDS011;50545;56.064;26.178;2022-09-03T11:33:30;1.10;;;1.00;;
64225;SDS011;50545;56.064;26.178;2022-09-03T11:36:05;1.13;;;1.05;;
64225;SDS011;50545;56.064;26.178;2022-09-03T11:38:32;1.17;;;0.98;;
64225;SDS011;50545;56.064;26.178;2022-09-03T11:43:40;0.85;;;0.80;;
64225;SDS011;50545;56.064;26.178;2022-09-03T11:46:10;1.80;;;0.70;;
64225;SDS011;50545;56.064;26.178;2022-09-03T11:48:51;0.75;;;0.75;;
64225;SDS011;50545;56.064;26.178;2022-09-03T11:53:55;1.60;;;0.98;;
64225;SDS011;50545;56.064;26.178;2022-09-03T11:56:24;9.25;;;1.40;;
64225;SDS011;50545;56.064;26.178;2022-09-03T11:58:58;4.50;;;1.20;;
64225;SDS011;50545;56.064;26.178;2022-09-03T12:04:14;1.10;;;1.00;;
64225;SDS011;50545;56.064;26.178;2022-09-03T12:09:20;1.13;;;0.80;;
64225;SDS011;50545;56.064;26.178;2022-09-03T12:15:16;1.25;;;1.00;;
64225;SDS011;50545;56.064;26.178;2022-09-03T12:17:52;0.90;;;0.90;;
64225;SDS011;50545;56.064;26.178;2022-09-03T12:23:10;1.02;;;0.68;;
64225;SDS011;50545;56.064;26.178;2022-09-03T12:25:43;1.10;;;0.70;;
64225;SDS011;50545;56.064;26.178;2022-09-03T12:28:15;1.30;;;0.80;;
64225;SDS011;50545;56.064;26.178;2022-09-03T12:30:47;0.63;;;0.63;;
64225;SDS011;50545;56.064;26.178;2022-09-03T12:33:20;5.07;;;1.02;;
64225;SDS011;50545;56.064;26.178;2022-09-03T12:35:58;0.82;;;0.82;;
64225;SDS011;50545;56.064;26.178;2022-09-03T12:38:27;1.08;;;0.77;;
64225;SDS011;50545;56.064;26.178;2022-09-03T12:41:23;0.85;;;0.85;;
64225;SDS011;50545;56.064;26.178;2022-09-03T12:43:54;1.00;;;0.85;;
64225;SDS011;50545;56.064;26.178;2022-09-03T12:46:27;0.70;;;0.70;;
64225;SDS011;50545;56.064;26.178;2022-09-03T12:49:00;1.50;;;1.08;;
64225;SDS011;50545;56.064;26.178;2022-09-03T12:51:50;1.48;;;0.90;;
64225;SDS011;50545;56.064;26.178;2022-09-03T12:54:30;1.20;;;0.90;;
64225;SDS011;50545;56.064;26.178;2022-09-03T12:56:58;1.92;;;0.77;;
64225;SDS011;50545;56.064;26.178;2022-09-03T12:59:26;0.75;;;0.75;;
64225;SDS011;50545;56.064;26.178;2022-09-03T13:02:00;1.48;;;0.90;;
64225;SDS011;50545;56.064;26.178;2022-09-03T13:04:35;0.60;;;0.60;;
64225;SDS011;50545;56.064;26.178;2022-09-03T13:07:04;0.60;;;0.60;;
64225;SDS011;50545;56.064;26.178;2022-09-03T13:09:37;1.10;;;0.90;;
64225;SDS011;50545;56.064;26.178;2022-09-03T13:12:07;0.70;;;0.70;;
64225;SDS011;50545;56.064;26.178;2022-09-03T13:15:10;0.75;;;0.75;;
64225;SDS011;50545;56.064;26.178;2022-09-03T13:24:08;0.65;;;0.65;;
64225;SDS011;50545;56.064;26.178;2022-09-03T13:31:49;0.80;;;0.80;;
64225;SDS011;50545;56.064;26.178;2022-09-03T13:42:49;0.55;;;0.55;;
64225;SDS011;50545;56.064;26.178;2022-09-03T13:47:58;1.55;;;0.98;;
64225;SDS011;50545;56.064;26.178;2022-09-03T13:50:56;0.50;;;0.50;;
64225;SDS011;50545;56.064;26.178;2022-09-03T13:57:32;0.70;;;0.70;;
64225;SDS011;50545;56.064;26.178;2022-09-03T14:00:07;1.33;;;0.82;;
64225;SDS011;50545;56.064;26.178;2022-09-03T14:05:40;0.90;;;0.90;;
64225;SDS011;50545;56.064;26.178;2022-09-03T14:08:17;1.45;;;0.90;;
64225;SDS011;50545;56.064;26.178;2022-09-03T14:10:51;0.75;;;0.60;;
64225;SDS011;50545;56.064;26.178;2022-09-03T14:16:27;2.70;;;1.05;;
64225;SDS011;50545;56.064;26.178;2022-09-03T14:19:59;1.08;;;0.65;;
64225;SDS011;50545;56.064;26.178;2022-09-03T14:22:46;0.75;;;0.55;;
64225;SDS011;50545;56.064;26.178;2022-09-03T14:25:25;0.85;;;0.65;;
64225;SDS011;50545;56.064;26.178;2022-09-03T14:27:54;0.50;;;0.50;;
64225;SDS011;50545;56.064;26.178;2022-09-03T14:30:53;1.50;;;0.77;;
64225;SDS011;50545;56.064;26.178;2022-09-03T14:33:52;0.75;;;0.70;;
64225;SDS011;50545;56.064;26.178;2022-09-03T14:36:29;1.52;;;0.80;;
64225;SDS011;50545;56.064;26.178;2022-09-03T14:39:26;0.50;;;0.50;;
64225;SDS011;50545;56.064;26.178;2022-09-03T15:05:40;0.60;;;0.60;;
64225;SDS011;50545;56.064;26.178;2022-09-03T15:10:51;0.50;;;0.50;;
64225;SDS011;50545;56.064;26.178;2022-09-03T15:13:28;0.70;;;0.70;;
64225;SDS011;50545;56.064;26.178;2022-09-03T15:16:11;0.70;;;0.70;;
64225;SDS011;50545;56.064;26.178;2022-09-03T15:29:58;1.05;;;0.75;;
64225;SDS011;50545;56.064;26.178;2022-09-03T15:32:42;1.80;;;0.65;;
64225;SDS011;50545;56.064;26.178;2022-09-03T15:41:16;1.50;;;0.70;;
64225;SDS011;50545;56.064;26.178;2022-09-03T15:43:59;0.77;;;0.77;;
64225;SDS011;50545;56.064;26.178;2022-09-03T15:47:02;0.80;;;0.80;;
64225;SDS011;50545;56.064;26.178;2022-09-03T15:52:36;2.45;;;0.63;;
64225;SDS011;50545;56.064;26.178;2022-09-03T15:55:31;1.60;;;0.80;;
64225;SDS011;50545;56.064;26.178;2022-09-03T16:01:00;1.35;;;0.70;;
64225;SDS011;50545;56.064;26.178;2022-09-03T16:03:40;0.60;;;0.60;;
64225;SDS011;50545;56.064;26.178;2022-09-03T16:14:48;0.95;;;0.60;;
64225;SDS011;50545;56.064;26.178;2022-09-03T16:17:43;1.20;;;0.73;;
64225;SDS011;50545;56.064;26.178;2022-09-03T16:22:59;0.60;;;0.60;;
64225;SDS011;50545;56.064;26.178;2022-09-03T16:25:57;0.98;;;0.73;;
64225;SDS011;50545;56.064;26.178;2022-09-03T16:28:40;1.55;;;1.27;;
64225;SDS011;50545;56.064;26.178;2022-09-03T16:31:46;1.35;;;1.10;;
64225;SDS011;50545;56.064;26.178;2022-09-03T16:34:25;2.45;;;1.55;;
64225;SDS011;50545;56.064;26.178;2022-09-03T16:37:13;1.83;;;0.90;;
64225;SDS011;50545;56.064;26.178;2022-09-03T16:39:49;4.45;;;1.40;;
64225;SDS011;50545;56.064;26.178;2022-09-03T16:51:42;1.60;;;1.30;;
64225;SDS011;50545;56.064;26.178;2022-09-03T17:14:23;1.65;;;0.82;;
64225;SDS011;50545;56.064;26.178;2022-09-03T17:20:29;2.10;;;0.90;;
64225;SDS011;50545;56.064;26.178;2022-09-03T17:25:34;1.42;;;1.27;;
64225;SDS011;50545;56.064;26.178;2022-09-03T17:34:01;6.03;;;1.38;;
64225;SDS011;50545;56.064;26.178;2022-09-03T17:36:40;9.35;;;1.70;;
64225;SDS011;50545;56.064;26.178;2022-09-03T17:39:53;7.67;;;1.53;;
64225;SDS011;50545;56.064;26.178;2022-09-03T17:42:42;11.18;;;1.60;;
64225;SDS011;50545;56.064;26.178;2022-09-03T17:54:09;3.15;;;1.05;;
64225;SDS011;50545;56.064;26.178;2022-09-03T17:57:24;3.40;;;0.80;;
64225;SDS011;50545;56.064;26.178;2022-09-03T18:02:34;0.95;;;0.90;;
64225;SDS011;50545;56.064;26.178;2022-09-03T18:05:28;1.85;;;1.02;;
64225;SDS011;50545;56.064;26.178;2022-09-03T18:11:11;0.63;;;0.63;;
64225;SDS011;50545;56.064;26.178;2022-09-03T18:14:02;8.32;;;1.65;;
64225;SDS011;50545;56.064;26.178;2022-09-03T18:17:03;8.07;;;1.70;;
64225;SDS011;50545;56.064;26.178;2022-09-03T18:22:51;4.80;;;1.17;;
64225;SDS011;50545;56.064;26.178;2022-09-03T18:25:47;4.13;;;1.13;;
64225;SDS011;50545;56.064;26.178;2022-09-03T18:28:39;1.13;;;0.80;;
64225;SDS011;50545;56.064;26.178;2022-09-03T18:31:31;1.10;;;1.00;;
64225;SDS011;50545;56.064;26.178;2022-09-03T18:34:17;2.05;;;1.02;;
64225;SDS011;50545;56.064;26.178;2022-09-03T18:37:09;0.93;;;0.88;;
64225;SDS011;50545;56.064;26.178;2022-09-03T18:39:54;1.20;;;1.02;;
64225;SDS011;50545;56.064;26.178;2022-09-03T18:52:13;3.83;;;1.25;;
64225;SDS011;50545;56.064;26.178;2022-09-03T18:58:23;6.35;;;2.40;;
64225;SDS011;50545;56.064;26.178;2022-09-03T19:01:26;2.83;;;0.80;;
64225;SDS011;50545;56.064;26.178;2022-09-03T19:07:11;2.08;;;1.00;;
64225;SDS011;50545;56.064;26.178;2022-09-03T19:10:09;2.00;;;1.30;;
64225;SDS011;50545;56.064;26.178;2022-09-03T19:16:10;1.65;;;1.20;;
64225;SDS011;50545;56.064;26.178;2022-09-03T19:22:15;2.15;;;1.00;;
64225;SDS011;50545;56.064;26.178;2022-09-03T19:25:13;1.38;;;1.15;;
64225;SDS011;50545;56.064;26.178;2022-09-03T19:37:03;2.22;;;1.13;;
64225;SDS011;50545;56.064;26.178;2022-09-03T19:40:03;1.48;;;1.00;;
64225;SDS011;50545;56.064;26.178;2022-09-03T19:55:24;2.10;;;1.23;;
64225;SDS011;50545;56.064;26.178;2022-09-03T19:58:11;2.03;;;1.20;;
64225;SDS011;50545;56.064;26.178;2022-09-03T20:01:09;2.47;;;1.10;;
64225;SDS011;50545;56.064;26.178;2022-09-03T20:03:57;1.00;;;0.90;;
64225;SDS011;50545;56.064;26.178;2022-09-03T20:06:45;1.65;;;0.90;;
64225;SDS011;50545;56.064;26.178;2022-09-03T20:09:33;1.90;;;0.90;;
64225;SDS011;50545;56.064;26.178;2022-09-03T20:12:22;2.40;;;1.08;;
64225;SDS011;50545;56.064;26.178;2022-09-03T20:14:53;2.60;;;0.75;;
64225;SDS011;50545;56.064;26.178;2022-09-03T20:19:54;1.83;;;1.00;;
64225;SDS011;50545;56.064;26.178;2022-09-03T20:22:32;0.77;;;0.77;;
64225;SDS011;50545;56.064;26.178;2022-09-03T20:36:33;2.10;;;1.02;;
64225;SDS011;50545;56.064;26.178;2022-09-03T20:42:09;1.13;;;0.90;;
64225;SDS011;50545;56.064;26.178;2022-09-03T20:50:43;1.13;;;1.02;;
64225;SDS011;50545;56.064;26.178;2022-09-03T20:58:43;1.02;;;0.80;;
64225;SDS011;50545;56.064;26.178;2022-09-03T21:01:33;3.92;;;1.20;;
64225;SDS011;50545;56.064;26.178;2022-09-03T21:10:15;0.88;;;0.80;;
64225;SDS011;50545;56.064;26.178;2022-09-03T21:24:52;0.65;;;0.65;;
64225;SDS011;50545;56.064;26.178;2022-09-03T21:27:27;0.80;;;0.80;;
64225;SDS011;50545;56.064;26.178;2022-09-03T21:30:13;1.10;;;1.02;;
64225;SDS011;50545;56.064;26.178;2022-09-03T21:32:58;1.45;;;1.02;;
64225;SDS011;50545;56.064;26.178;2022-09-03T21:35:36;1.52;;;1.05;;
64225;SDS011;50545;56.064;26.178;2022-09-03T21:38:30;0.75;;;0.75;;
64225;SDS011;50545;56.064;26.178;2022-09-03T21:46:14;1.58;;;1.05;;
64225;SDS011;50545;56.064;26.178;2022-09-03T21:49:04;3.30;;;0.90;;
64225;SDS011;50545;56.064;26.178;2022-09-03T21:54:30;1.10;;;1.00;;
64225;SDS011;50545;56.064;26.178;2022-09-03T21:57:18;1.15;;;0.90;;
64225;SDS011;50545;56.064;26.178;2022-09-03T21:59:53;0.93;;;0.90;;
64225;SDS011;50545;56.064;26.178;2022-09-03T22:02:30;1.73;;;1.00;;
64225;SDS011;50545;56.064;26.178;2022-09-03T22:04:59;0.88;;;0.88;;
64225;SDS011;50545;56.064;26.178;2022-09-03T22:15:56;0.93;;;0.80;;
64225;SDS011;50545;56.064;26.178;2022-09-03T22:18:42;1.08;;;0.85;;
64225;SDS011;50545;56.064;26.178;2022-09-03T22:24:02;2.15;;;0.70;;
64225;SDS011;50545;56.064;26.178;2022-09-03T22:46:15;1.38;;;1.00;;
64225;SDS011;50545;56.064;26.178;2022-09-03T22:49:28;2.53;;;0.93;;
64225;SDS011;50545;56.064;26.178;2022-09-03T22:57:02;0.98;;;0.88;;
64225;SDS011;50545;56.064;26.178;2022-09-03T22:59:39;1.33;;;0.90;;
64225;SDS011;50545;56.064;26.178;2022-09-03T23:02:14;1.92;;;1.02;;
64225;SDS011;50545;56.064;26.178;2022-09-03T23:04:50;0.60;;;0.60;;